createdAt,value
2022-11-15T00:01:29.053Z,87.70
2022-11-15T00:04:12.266Z,87.70
2022-11-15T00:06:54.100Z,87.60
2022-11-15T00:09:40.970Z,87.60
2022-11-15T00:12:25.318Z,87.80
2022-11-15T00:15:09.350Z,87.60
2022-11-15T00:17:51.984Z,87.80
2022-11-15T00:20:35.991Z,87.80
2022-11-15T00:23:18.181Z,88.10
2022-11-15T00:26:02.007Z,88.20
2022-11-15T00:28:44.388Z,88.10
2022-11-15T00:31:26.437Z,88.10
2022-11-15T00:34:08.160Z,88.20
2022-11-15T00:36:49.969Z,88.40
2022-11-15T00:39:32.073Z,88.30
2022-11-15T00:42:15.637Z,88.30
2022-11-15T00:44:57.386Z,88.40
2022-11-15T00:47:39.391Z,88.40
2022-11-15T00:50:21.616Z,88.50
2022-11-15T00:53:03.485Z,88.60
2022-11-15T00:55:45.892Z,88.60
2022-11-15T00:58:28.805Z,88.70
2022-11-15T01:01:13.233Z,88.50
2022-11-15T01:03:58.711Z,88.60
2022-11-15T01:06:43.259Z,88.60
2022-11-15T01:09:25.499Z,88.80
2022-11-15T01:12:07.583Z,88.90
2022-11-15T01:14:51.615Z,88.80
2022-11-15T01:17:33.582Z,88.70
2022-11-15T01:20:15.159Z,88.70
2022-11-15T01:22:57.430Z,88.80
2022-11-15T01:25:39.373Z,89.00
2022-11-15T01:28:21.199Z,88.80
2022-11-15T01:31:06.726Z,88.70
2022-11-15T01:33:49.867Z,88.60
2022-11-15T01:36:32.034Z,88.80
2022-11-15T01:39:13.985Z,88.80
2022-11-15T01:41:56.569Z,88.70
2022-11-15T01:44:45.671Z,88.70
2022-11-15T01:47:32.983Z,88.80
2022-11-15T01:50:19.611Z,89.00
2022-11-15T01:53:01.568Z,89.10
2022-11-15T01:55:43.916Z,89.00
2022-11-15T01:58:27.077Z,89.00
2022-11-15T02:01:08.991Z,89.00
2022-11-15T02:03:59.579Z,88.90
2022-11-15T02:06:43.742Z,89.00
2022-11-15T02:09:25.853Z,88.80
2022-11-15T02:12:09.567Z,88.80
2022-11-15T02:14:55.836Z,88.90
2022-11-15T02:18:00.512Z,88.90
2022-11-15T02:20:58.541Z,88.90
2022-11-15T02:24:38.516Z,88.90
2022-11-15T02:28:09.578Z,89.00
2022-11-15T02:30:57.903Z,89.00
2022-11-15T02:33:50.787Z,88.80
2022-11-15T02:36:42.990Z,88.90
2022-11-15T02:39:33.584Z,88.70
2022-11-15T02:42:41.841Z,88.70
2022-11-15T02:45:32.467Z,88.60
2022-11-15T02:48:17.676Z,88.70
2022-11-15T02:51:00.943Z,88.70
2022-11-15T02:53:42.822Z,88.70
2022-11-15T02:56:24.890Z,88.80
2022-11-15T02:59:31.164Z,88.80
2022-11-15T03:02:27.824Z,88.90
2022-11-15T03:05:21.844Z,88.70
2022-11-15T03:08:10.323Z,88.70
2022-11-15T03:11:04.809Z,88.50
2022-11-15T03:13:55.594Z,88.30
2022-11-15T03:16:44.352Z,88.50
2022-11-15T03:19:34.171Z,88.30
2022-11-15T03:22:22.629Z,88.50
2022-11-15T03:25:09.438Z,88.50
2022-11-15T03:27:55.252Z,88.40
2022-11-15T03:30:38.482Z,88.30
2022-11-15T03:33:22.120Z,88.40
2022-11-15T03:36:03.795Z,88.40
2022-11-15T03:38:47.980Z,88.40
2022-11-15T03:41:38.432Z,88.30
2022-11-15T03:44:33.597Z,88.40
2022-11-15T03:47:20.284Z,88.30
2022-11-15T03:50:07.288Z,88.40
2022-11-15T03:52:51.015Z,88.40
2022-11-15T03:55:35.335Z,88.40
2022-11-15T03:58:17.218Z,88.30
2022-11-15T04:01:00.466Z,88.30
2022-11-15T04:03:42.458Z,88.30
2022-11-15T04:06:24.226Z,88.30
2022-11-15T04:09:06.669Z,88.30
2022-11-15T04:11:50.127Z,88.40
2022-11-15T04:14:31.953Z,88.20
2022-11-15T04:17:14.081Z,88.00
2022-11-15T04:20:13.296Z,88.10
2022-11-15T04:23:13.678Z,88.30
2022-11-15T04:25:57.733Z,88.30
2022-11-15T04:29:01.372Z,88.20
2022-11-15T04:31:43.311Z,88.40
2022-11-15T04:34:25.263Z,88.30
2022-11-15T04:37:17.096Z,88.30
2022-11-15T04:39:59.180Z,88.20
2022-11-15T04:42:43.850Z,88.30
2022-11-15T04:45:26.945Z,88.30
2022-11-15T04:48:08.921Z,88.30
2022-11-15T04:50:51.082Z,88.20
2022-11-15T04:53:33.337Z,88.10
2022-11-15T04:56:15.529Z,88.10
2022-11-15T04:58:57.208Z,88.10
2022-11-15T05:01:44.703Z,88.20
2022-11-15T05:04:26.273Z,88.30
2022-11-15T05:07:08.420Z,88.30
2022-11-15T05:09:50.416Z,88.30
2022-11-15T05:12:32.068Z,88.20
2022-11-15T05:15:14.448Z,88.20
2022-11-15T05:18:01.691Z,88.10
2022-11-15T05:20:43.653Z,88.30
2022-11-15T05:23:25.571Z,88.40
2022-11-15T05:26:09.723Z,88.30
2022-11-15T05:28:56.071Z,88.30
2022-11-15T05:31:43.502Z,88.40
2022-11-15T05:34:27.732Z,88.40
2022-11-15T05:37:10.049Z,88.50
2022-11-15T05:39:52.148Z,88.70
2022-11-15T05:42:34.255Z,88.50
2022-11-15T05:45:16.873Z,88.60
2022-11-15T05:48:00.766Z,88.70
2022-11-15T05:50:48.089Z,88.50
2022-11-15T05:53:30.209Z,88.50
2022-11-15T05:56:12.494Z,88.60
2022-11-15T05:58:59.497Z,88.80
2022-11-15T06:01:42.666Z,88.80
2022-11-15T06:04:25.320Z,88.80
2022-11-15T06:07:08.894Z,88.70
2022-11-15T06:09:51.165Z,88.70
2022-11-15T06:12:33.093Z,88.60
2022-11-15T06:15:15.196Z,88.60
2022-11-15T06:17:59.450Z,88.60
2022-11-15T06:20:41.083Z,88.80
2022-11-15T06:23:26.220Z,88.90
2022-11-15T06:26:08.176Z,88.90
2022-11-15T06:28:49.772Z,88.80
2022-11-15T06:31:31.904Z,88.90
2022-11-15T06:34:13.967Z,88.90
2022-11-15T06:36:56.015Z,89.00
2022-11-15T06:39:39.132Z,88.90
2022-11-15T06:42:20.793Z,89.00
2022-11-15T06:45:03.031Z,88.70
2022-11-15T06:47:48.381Z,88.80
2022-11-15T06:50:30.396Z,88.90
2022-11-15T06:53:13.607Z,88.90
2022-11-15T06:56:03.602Z,88.90
2022-11-15T06:58:45.120Z,88.90
2022-11-15T07:01:27.277Z,88.80
2022-11-15T07:04:09.314Z,89.00
2022-11-15T07:06:51.386Z,88.90
2022-11-15T07:09:33.157Z,88.40
2022-11-15T07:12:16.541Z,88.10
2022-11-15T07:14:58.232Z,87.80
2022-11-15T07:17:40.409Z,87.70
2022-11-15T07:20:22.218Z,87.80
2022-11-15T07:23:05.408Z,87.80
2022-11-15T07:25:47.064Z,87.70
2022-11-15T07:28:30.861Z,87.40
2022-11-15T07:31:13.130Z,87.10
2022-11-15T07:33:54.745Z,87.30
2022-11-15T07:36:36.865Z,88.10
2022-11-15T07:39:18.528Z,89.50
2022-11-15T07:42:15.000Z,89.80
2022-11-15T07:44:58.372Z,90.10
2022-11-15T07:47:40.060Z,90.50
2022-11-15T07:50:22.198Z,90.80
2022-11-15T07:53:04.463Z,91.00
2022-11-15T07:55:46.183Z,91.40
2022-11-15T07:58:28.261Z,91.90
2022-11-15T08:01:12.539Z,92.00
2022-11-15T08:03:54.393Z,92.30
2022-11-15T08:06:36.374Z,92.40
2022-11-15T08:09:18.411Z,92.50
2022-11-15T08:12:00.357Z,92.40
2022-11-15T08:14:42.249Z,92.60
2022-11-15T08:17:25.771Z,92.50
2022-11-15T08:20:09.028Z,92.50
2022-11-15T08:22:50.668Z,92.50
2022-11-15T08:25:34.904Z,92.50
2022-11-15T08:28:19.342Z,92.40
2022-11-15T08:31:01.805Z,92.30
2022-11-15T08:33:46.035Z,92.50
2022-11-15T08:36:32.132Z,92.00
2022-11-15T08:39:18.538Z,92.10
2022-11-15T08:42:00.899Z,92.10
2022-11-15T08:44:42.661Z,92.10
2022-11-15T08:47:25.024Z,92.30
2022-11-15T08:50:10.044Z,92.20
2022-11-15T08:52:51.879Z,92.00
2022-11-15T08:55:33.821Z,91.90
2022-11-15T08:58:15.846Z,91.80
2022-11-15T09:00:58.082Z,92.10
2022-11-15T09:03:41.863Z,91.80
2022-11-15T09:06:24.891Z,92.00
2022-11-15T09:09:06.699Z,91.80
2022-11-15T09:11:48.970Z,91.90
2022-11-15T09:14:30.984Z,91.80
2022-11-15T09:17:12.883Z,91.60
2022-11-15T09:19:54.970Z,91.30
2022-11-15T09:22:39.643Z,89.80
2022-11-15T09:25:21.379Z,90.20
2022-11-15T09:28:08.140Z,89.50
2022-11-15T09:30:49.767Z,87.90
2022-11-15T09:33:32.150Z,88.30
2022-11-15T09:36:17.771Z,87.30
2022-11-15T09:39:02.181Z,87.90
2022-11-15T09:42:00.851Z,85.80
2022-11-15T09:45:15.210Z,85.10
2022-11-15T09:48:35.866Z,84.60
2022-11-15T09:51:31.327Z,85.90
2022-11-15T09:56:49.318Z,85.20
2022-11-15T09:59:40.475Z,84.90
2022-11-15T10:02:17.764Z,84.50
2022-11-15T10:04:41.536Z,83.70
2022-11-15T10:07:15.943Z,84.20
2022-11-15T10:09:49.988Z,82.70
2022-11-15T10:12:15.606Z,81.90
2022-11-15T10:14:39.343Z,82.60
2022-11-15T10:17:22.198Z,81.00
2022-11-15T10:20:05.237Z,81.80
2022-11-15T10:22:32.452Z,80.40
2022-11-15T10:25:24.410Z,79.40
2022-11-15T10:27:55.915Z,78.90
2022-11-15T10:30:20.971Z,79.20
2022-11-15T10:32:47.003Z,78.80
2022-11-15T10:35:25.876Z,77.40
2022-11-15T10:37:49.507Z,78.90
2022-11-15T10:40:22.314Z,76.50
2022-11-15T10:42:45.925Z,77.80
2022-11-15T10:45:28.028Z,77.90
2022-11-15T10:47:51.440Z,76.60
2022-11-15T10:50:31.123Z,77.80
2022-11-15T10:52:54.515Z,76.50
2022-11-15T10:55:32.693Z,74.80
2022-11-15T10:57:59.506Z,75.00
2022-11-15T11:00:39.548Z,74.90
2022-11-15T11:03:06.718Z,74.40
2022-11-15T11:05:38.112Z,71.60
2022-11-15T11:08:12.026Z,74.90
2022-11-15T11:10:50.873Z,74.30
2022-11-15T11:13:16.673Z,74.10
2022-11-15T11:15:40.737Z,74.00
2022-11-15T11:18:10.881Z,73.20
2022-11-15T11:20:40.836Z,73.40
2022-11-15T11:23:21.753Z,72.80
2022-11-15T11:25:59.844Z,71.40
2022-11-15T11:28:41.708Z,69.80
2022-11-15T11:31:22.450Z,69.90
2022-11-15T11:34:00.518Z,69.90
2022-11-15T11:36:29.875Z,70.30
2022-11-15T11:39:02.986Z,69.50
2022-11-15T11:41:50.604Z,72.30
2022-11-15T11:44:29.781Z,71.10
2022-11-15T11:46:58.892Z,71.40
2022-11-15T11:49:33.379Z,69.60
2022-11-15T11:52:03.964Z,68.80
2022-11-15T11:54:36.875Z,70.20
2022-11-15T11:57:05.484Z,68.50
2022-11-15T11:59:39.757Z,66.60
2022-11-15T12:02:18.108Z,68.20
2022-11-15T12:04:46.541Z,67.20
2022-11-15T12:07:19.189Z,67.30
2022-11-15T12:09:47.119Z,67.50
2022-11-15T12:12:19.553Z,66.30
2022-11-15T12:14:51.781Z,65.60
2022-11-15T12:17:17.484Z,65.60
2022-11-15T12:19:41.417Z,63.40
2022-11-15T12:22:12.879Z,63.70
2022-11-15T12:24:42.912Z,63.50
2022-11-15T12:27:23.274Z,63.10
2022-11-15T12:29:53.734Z,62.80
2022-11-15T12:32:27.606Z,62.80
2022-11-15T12:34:52.443Z,63.20
2022-11-15T12:37:50.619Z,64.00
2022-11-15T12:40:25.445Z,63.10
2022-11-15T12:43:40.749Z,61.50
2022-11-15T12:46:07.449Z,61.90
2022-11-15T12:48:52.117Z,62.00
2022-11-15T12:51:15.566Z,61.70
2022-11-15T12:53:39.368Z,60.30
2022-11-15T12:56:24.145Z,60.60
2022-11-15T12:58:51.090Z,61.30
2022-11-15T13:02:19.748Z,61.80
2022-11-15T13:04:43.095Z,62.30
2022-11-15T13:07:09.502Z,62.50
2022-11-15T13:10:00.360Z,63.50
2022-11-15T13:12:53.881Z,63.00
2022-11-15T13:15:42.758Z,63.90
2022-11-15T13:18:35.055Z,63.50
2022-11-15T13:21:02.355Z,65.40
2022-11-15T13:23:25.860Z,64.60
2022-11-15T13:26:12.690Z,64.90
2022-11-15T13:28:40.786Z,64.30
2022-11-15T13:31:20.352Z,64.70
2022-11-15T13:33:46.289Z,65.70
2022-11-15T13:36:19.881Z,65.50
2022-11-15T13:38:44.378Z,65.20
2022-11-15T13:41:22.079Z,65.90
2022-11-15T13:43:45.406Z,64.80
2022-11-15T13:46:14.158Z,65.80
2022-11-15T13:48:37.615Z,66.20
2022-11-15T13:51:04.017Z,65.80
2022-11-15T13:53:27.734Z,66.10
2022-11-15T13:55:51.884Z,66.50
2022-11-15T13:58:16.267Z,66.70
2022-11-15T14:00:44.299Z,65.80
2022-11-15T14:03:21.702Z,67.20
2022-11-15T14:05:45.392Z,67.00
2022-11-15T14:08:25.905Z,67.20
2022-11-15T14:10:49.432Z,66.60
2022-11-15T14:13:31.005Z,66.60
2022-11-15T14:15:54.619Z,67.30
2022-11-15T14:18:44.593Z,67.40
2022-11-15T14:21:10.247Z,66.40
2022-11-15T14:23:34.857Z,67.60
2022-11-15T14:26:00.387Z,67.40
2022-11-15T14:28:37.604Z,67.40
2022-11-15T14:31:02.484Z,67.30
2022-11-15T14:33:30.499Z,67.50
2022-11-15T14:35:55.431Z,67.70
2022-11-15T14:38:19.091Z,68.90
2022-11-15T14:40:45.046Z,68.50
2022-11-15T14:43:12.162Z,68.50
2022-11-15T14:45:35.525Z,68.50
2022-11-15T14:47:59.245Z,68.60
2022-11-15T14:50:23.965Z,68.70
2022-11-15T14:52:48.197Z,68.20
2022-11-15T14:55:20.581Z,68.70
2022-11-15T14:57:45.594Z,69.20
2022-11-15T15:00:16.863Z,69.00
2022-11-15T15:02:45.211Z,69.50
2022-11-15T15:05:18.476Z,69.40
2022-11-15T15:07:41.872Z,69.70
2022-11-15T15:10:37.604Z,70.00
2022-11-15T15:12:51.329Z,70.30
2022-11-15T15:15:17.691Z,70.20
2022-11-15T15:17:40.960Z,70.80
2022-11-15T15:20:04.951Z,71.20
2022-11-15T15:22:31.564Z,70.80
2022-11-15T15:24:55.547Z,70.70
2022-11-15T15:27:19.116Z,71.10
2022-11-15T15:29:43.850Z,71.10
2022-11-15T15:32:07.833Z,71.30
2022-11-15T15:34:31.149Z,72.00
2022-11-15T15:37:10.492Z,71.50
2022-11-15T15:39:33.820Z,71.90
2022-11-15T15:41:57.563Z,71.70
2022-11-15T15:44:20.919Z,71.90
2022-11-15T15:46:45.591Z,72.00
2022-11-15T15:49:12.045Z,71.90
2022-11-15T15:51:35.466Z,72.20
2022-11-15T15:53:59.119Z,71.80
2022-11-15T15:56:22.467Z,72.30
2022-11-15T15:58:46.250Z,72.60
2022-11-15T16:01:09.715Z,72.80
2022-11-15T16:03:34.487Z,72.30
2022-11-15T16:05:59.613Z,71.90
2022-11-15T16:08:25.871Z,72.10
2022-11-15T16:10:49.961Z,71.90
2022-11-15T16:13:13.371Z,72.10
2022-11-15T16:15:38.218Z,72.50
2022-11-15T16:18:03.221Z,72.30
2022-11-15T16:20:35.706Z,72.90
2022-11-15T16:23:03.097Z,72.60
2022-11-15T16:25:30.873Z,72.50
2022-11-15T16:27:54.820Z,72.50
2022-11-15T16:30:22.278Z,72.80
2022-11-15T16:32:45.710Z,72.80
2022-11-15T16:35:12.670Z,72.60
2022-11-15T16:37:37.463Z,73.40
2022-11-15T16:40:01.405Z,72.70
2022-11-15T16:42:24.945Z,72.90
2022-11-15T16:44:48.325Z,73.00
2022-11-15T16:47:20.207Z,73.00
2022-11-15T16:49:45.866Z,73.10
2022-11-15T16:52:12.508Z,73.00
2022-11-15T16:54:37.486Z,73.10
2022-11-15T16:57:00.891Z,73.10
2022-11-15T16:59:24.135Z,72.60
2022-11-15T17:01:52.699Z,72.90
2022-11-15T17:04:18.060Z,73.30
2022-11-15T17:06:42.289Z,73.20
2022-11-15T17:09:05.743Z,73.10
2022-11-15T17:11:30.282Z,73.60
2022-11-15T17:13:59.457Z,73.50
2022-11-15T17:16:22.702Z,73.70
2022-11-15T17:18:46.591Z,73.20
2022-11-15T17:21:14.347Z,73.40
2022-11-15T17:23:37.697Z,73.10
2022-11-15T17:26:17.835Z,73.30
2022-11-15T17:28:46.233Z,73.30
2022-11-15T17:31:11.509Z,73.70
2022-11-15T17:33:34.847Z,73.30
2022-11-15T17:35:59.051Z,73.60
2022-11-15T17:38:22.342Z,74.00
2022-11-15T17:40:45.632Z,73.90
2022-11-15T17:43:08.943Z,74.10
2022-11-15T17:45:33.855Z,74.50
2022-11-15T17:47:57.471Z,73.90
2022-11-15T17:50:20.841Z,74.20
2022-11-15T17:52:44.217Z,74.00
2022-11-15T17:55:08.395Z,74.00
2022-11-15T17:57:32.099Z,74.30
2022-11-15T17:59:55.596Z,74.40
2022-11-15T18:02:20.467Z,74.90
2022-11-15T18:04:43.852Z,75.10
2022-11-15T18:07:07.219Z,75.50
2022-11-15T18:09:30.783Z,76.30
2022-11-15T18:11:54.733Z,76.70
2022-11-15T18:14:18.863Z,77.20
2022-11-15T18:16:42.631Z,77.50
2022-11-15T18:19:13.173Z,78.20
2022-11-15T18:21:55.938Z,79.50
2022-11-15T18:24:19.275Z,79.80
2022-11-15T18:26:42.557Z,81.30
2022-11-15T18:29:06.418Z,82.10
2022-11-15T18:31:31.810Z,82.40
2022-11-15T18:33:55.955Z,82.40
2022-11-15T18:36:24.307Z,82.50
2022-11-15T18:38:48.073Z,83.30
2022-11-15T18:41:15.126Z,83.60
2022-11-15T18:43:38.833Z,83.80
2022-11-15T18:46:05.153Z,84.40
2022-11-15T18:48:31.388Z,84.80
2022-11-15T18:50:54.661Z,84.90
2022-11-15T18:53:19.404Z,85.10
2022-11-15T18:55:42.657Z,84.60
2022-11-15T18:58:06.166Z,85.30
2022-11-15T19:00:29.413Z,86.10
2022-11-15T19:02:55.469Z,86.60
2022-11-15T19:05:21.353Z,87.30
2022-11-15T19:07:44.804Z,87.50
2022-11-15T19:10:11.981Z,87.50
2022-11-15T19:12:35.411Z,87.90
2022-11-15T19:14:58.743Z,88.40
2022-11-15T19:17:22.121Z,88.70
2022-11-15T19:19:45.351Z,88.60
2022-11-15T19:22:08.596Z,88.70
2022-11-15T19:24:32.063Z,89.10
2022-11-15T19:26:56.812Z,89.50
2022-11-15T19:29:20.271Z,89.50
2022-11-15T19:31:44.037Z,89.50
2022-11-15T19:34:08.825Z,89.70
2022-11-15T19:36:34.277Z,89.90
2022-11-15T19:38:57.769Z,90.20
2022-11-15T19:41:23.366Z,90.00
2022-11-15T19:43:48.888Z,90.10
2022-11-15T19:46:13.677Z,90.10
2022-11-15T19:48:37.290Z,90.30
2022-11-15T19:51:02.729Z,90.70
2022-11-15T19:53:29.079Z,90.70
2022-11-15T19:55:57.634Z,90.70
2022-11-15T19:58:21.156Z,90.90
2022-11-15T20:00:45.941Z,90.90
2022-11-15T20:03:09.238Z,91.00
2022-11-15T20:05:32.544Z,91.00
2022-11-15T20:07:55.879Z,91.20
2022-11-15T20:10:20.866Z,91.40
2022-11-15T20:12:44.725Z,91.60
2022-11-15T20:15:09.039Z,91.50
2022-11-15T20:17:33.904Z,91.60
2022-11-15T20:19:58.465Z,91.70
2022-11-15T20:22:21.747Z,91.70
2022-11-15T20:24:45.019Z,91.70
2022-11-15T20:27:08.510Z,91.90
2022-11-15T20:29:31.720Z,92.10
2022-11-15T20:31:54.923Z,92.30
2022-11-15T20:34:19.549Z,92.20
2022-11-15T20:36:42.866Z,92.10
2022-11-15T20:39:06.106Z,92.00
2022-11-15T20:41:29.479Z,92.10
2022-11-15T20:43:52.857Z,92.30
2022-11-15T20:46:16.065Z,92.30
2022-11-15T20:48:39.431Z,92.30
2022-11-15T20:51:11.357Z,92.20
2022-11-15T20:53:35.319Z,92.30
2022-11-15T20:56:07.617Z,92.30
2022-11-15T20:58:31.538Z,92.40
2022-11-15T21:00:57.119Z,92.40
2022-11-15T21:03:20.537Z,92.50
2022-11-15T21:05:45.943Z,92.60
2022-11-15T21:08:12.919Z,92.30
2022-11-15T21:10:53.612Z,92.40
2022-11-15T21:13:16.983Z,92.50
2022-11-15T21:15:40.278Z,92.60
2022-11-15T21:18:03.500Z,92.60
2022-11-15T21:20:26.916Z,92.70
2022-11-15T21:22:50.305Z,92.80
2022-11-15T21:25:15.125Z,92.90
2022-11-15T21:27:38.469Z,92.90
2022-11-15T21:30:01.725Z,92.80
2022-11-15T21:32:25.029Z,92.70
2022-11-15T21:34:48.327Z,92.90
2022-11-15T21:37:11.711Z,92.90
2022-11-15T21:39:35.250Z,92.90
2022-11-15T21:42:00.027Z,92.90
2022-11-15T21:44:23.684Z,93.00
2022-11-15T21:46:47.274Z,93.00
2022-11-15T21:49:10.964Z,93.10
2022-11-15T21:51:34.906Z,93.10
2022-11-15T21:53:58.679Z,93.10
2022-11-15T21:56:22.065Z,93.10
2022-11-15T21:58:46.738Z,93.10
2022-11-15T22:01:29.835Z,93.10
2022-11-15T22:03:53.477Z,93.10
2022-11-15T22:06:18.124Z,93.20
2022-11-15T22:08:41.889Z,93.30
2022-11-15T22:11:05.411Z,93.30
2022-11-15T22:13:28.941Z,93.40
2022-11-15T22:15:54.466Z,93.40
2022-11-15T22:18:22.220Z,93.20
2022-11-15T22:20:55.205Z,93.30
2022-11-15T22:23:18.541Z,93.40
2022-11-15T22:25:41.950Z,93.50
2022-11-15T22:28:05.567Z,93.40
2022-11-15T22:30:29.017Z,93.60
2022-11-15T22:32:53.753Z,93.60
2022-11-15T22:35:17.755Z,93.60
2022-11-15T22:37:41.391Z,93.60
2022-11-15T22:40:06.011Z,93.60
2022-11-15T22:42:29.483Z,93.60
2022-11-15T22:44:52.880Z,93.60
2022-11-15T22:47:16.211Z,93.60
2022-11-15T22:49:42.288Z,93.70
2022-11-15T22:52:06.182Z,93.70
2022-11-15T22:54:29.575Z,93.80
2022-11-15T22:56:53.360Z,93.80
2022-11-15T22:59:16.879Z,93.80
2022-11-15T23:01:40.247Z,93.80
2022-11-15T23:04:03.722Z,93.80
2022-11-15T23:06:28.628Z,93.80
2022-11-15T23:08:52.123Z,93.90
2022-11-15T23:11:32.828Z,93.90
2022-11-15T23:13:56.420Z,93.80
2022-11-15T23:16:23.494Z,93.70
2022-11-15T23:18:47.006Z,93.70
2022-11-15T23:21:11.453Z,93.80
2022-11-15T23:23:35.594Z,93.80
2022-11-15T23:26:00.016Z,93.90
2022-11-15T23:28:23.377Z,93.80
2022-11-15T23:31:09.327Z,93.80
2022-11-15T23:33:50.138Z,93.80
2022-11-15T23:36:13.578Z,93.80
2022-11-15T23:38:38.786Z,93.90
2022-11-15T23:41:02.246Z,93.90
2022-11-15T23:43:25.665Z,93.90
2022-11-15T23:45:49.585Z,93.90
2022-11-15T23:48:13.300Z,93.90
2022-11-15T23:50:37.400Z,93.90
2022-11-15T23:53:00.850Z,94.00
2022-11-15T23:55:25.514Z,94.00
2022-11-15T23:57:49.291Z,94.00
